createdAt,value
2023-02-11T00:00:31.227Z,101966.88
2023-02-11T00:04:21.360Z,101975.13
2023-02-11T00:07:55.968Z,101967.23
2023-02-11T00:11:25.574Z,101962.40
2023-02-11T00:14:53.285Z,101956.94
2023-02-11T00:18:20.891Z,101957.42
2023-02-11T00:21:48.176Z,101957.45
2023-02-11T00:25:15.336Z,101951.94
2023-02-11T00:28:43.080Z,101954.77
2023-02-11T00:32:11.144Z,101958.84
2023-02-11T00:35:39.672Z,101946.96
2023-02-11T00:39:08.473Z,101934.65
2023-02-11T00:42:37.429Z,101939.26
2023-02-11T00:46:04.970Z,101932.87
2023-02-11T00:49:32.322Z,101932.36
2023-02-11T00:53:07.483Z,101915.80
2023-02-11T00:56:35.109Z,101895.94
2023-02-11T01:00:02.388Z,101880.06
2023-02-11T01:03:29.808Z,101867.13
2023-02-11T01:06:59.464Z,101866.14
2023-02-11T01:10:26.815Z,101849.54
2023-02-11T01:13:53.994Z,101824.23
2023-02-11T01:17:23.289Z,101815.95
2023-02-11T01:20:54.012Z,101809.10
2023-02-11T01:24:21.233Z,101800.02
2023-02-11T01:27:48.512Z,101798.44
2023-02-11T01:31:15.714Z,101794.44
2023-02-11T01:34:43.069Z,101788.91
2023-02-11T01:38:18.459Z,101796.27
2023-02-11T01:41:45.784Z,101794.55
2023-02-11T01:45:47.321Z,101803.94
2023-02-11T01:49:19.810Z,101826.83
2023-02-11T01:52:49.653Z,101832.02
2023-02-11T01:56:35.287Z,101841.49
2023-02-11T02:00:11.882Z,101855.68
2023-02-11T02:03:47.285Z,101859.48
2023-02-11T02:07:19.108Z,101856.16
2023-02-11T02:10:48.845Z,101845.53
2023-02-11T02:14:16.996Z,101843.67
2023-02-11T02:17:55.202Z,101819.47
2023-02-11T02:22:05.319Z,101818.36
2023-02-11T02:25:49.490Z,101815.81
2023-02-11T02:29:49.097Z,101797.97
2023-02-11T02:33:25.669Z,101779.55
2023-02-11T02:37:02.595Z,101781.55
2023-02-11T02:40:33.448Z,101775.86
2023-02-11T02:44:01.315Z,101772.90
2023-02-11T02:47:28.636Z,101766.70
2023-02-11T02:51:03.120Z,101758.50
2023-02-11T02:54:45.894Z,101751.14
2023-02-11T02:58:52.781Z,101749.83
2023-02-11T03:02:26.559Z,101738.76
2023-02-11T03:06:02.890Z,101752.98
2023-02-11T03:09:36.172Z,101753.66
2023-02-11T03:13:06.560Z,101742.70
2023-02-11T03:16:39.185Z,101736.45
2023-02-11T03:20:11.646Z,101733.25
2023-02-11T03:23:42.412Z,101723.86
2023-02-11T03:27:17.888Z,101712.54
2023-02-11T03:30:50.774Z,101711.52
2023-02-11T03:34:29.456Z,101703.09
2023-02-11T03:38:02.378Z,101693.59
2023-02-11T03:41:31.668Z,101699.30
2023-02-11T03:45:13.245Z,101689.33
2023-02-11T03:48:43.304Z,101682.24
2023-02-11T03:52:12.461Z,101664.65
2023-02-11T03:55:41.618Z,101651.09
2023-02-11T03:59:09.188Z,101651.27
2023-02-11T04:02:38.231Z,101650.59
2023-02-11T04:06:06.006Z,101645.45
2023-02-11T04:09:33.354Z,101635.83
2023-02-11T04:13:00.510Z,101628.44
2023-02-11T04:16:27.802Z,101627.54
2023-02-11T04:19:55.239Z,101621.73
2023-02-11T04:23:22.623Z,101621.69
2023-02-11T04:26:49.836Z,101617.23
2023-02-11T04:30:17.707Z,101613.41
2023-02-11T04:33:44.991Z,101600.86
2023-02-11T04:37:12.533Z,101600.67
2023-02-11T04:40:39.821Z,101595.29
2023-02-11T04:44:07.883Z,101585.10
2023-02-11T04:47:35.354Z,101577.98
2023-02-11T04:51:02.584Z,101574.82
2023-02-11T04:54:30.011Z,101576.48
2023-02-11T04:57:57.226Z,101581.54
2023-02-11T05:01:24.484Z,101577.29
2023-02-11T05:04:54.423Z,101576.02
2023-02-11T05:08:21.596Z,101574.22
2023-02-11T05:11:48.833Z,101572.12
2023-02-11T05:15:16.091Z,101567.13
2023-02-11T05:18:44.324Z,101553.33
2023-02-11T05:22:11.643Z,101556.45
2023-02-11T05:25:38.825Z,101550.33
2023-02-11T05:29:06.043Z,101552.94
2023-02-11T05:32:33.636Z,101545.23
2023-02-11T05:36:07.043Z,101541.64
2023-02-11T05:39:34.488Z,101536.96
2023-02-11T05:43:01.683Z,101546.80
2023-02-11T05:46:29.044Z,101541.95
2023-02-11T05:49:59.585Z,101530.10
2023-02-11T05:53:26.942Z,101522.70
2023-02-11T05:56:54.235Z,101512.77
2023-02-11T06:00:21.995Z,101509.04
2023-02-11T06:03:50.211Z,101518.23
2023-02-11T06:07:17.586Z,101516.84
2023-02-11T06:10:47.536Z,101508.78
2023-02-11T06:14:15.280Z,101517.63
2023-02-11T06:17:42.440Z,101514.23
2023-02-11T06:21:12.532Z,101511.37
2023-02-11T06:24:59.908Z,101510.33
2023-02-11T06:28:27.048Z,101511.56
2023-02-11T06:31:54.396Z,101525.80
2023-02-11T06:35:22.283Z,101513.17
2023-02-11T06:38:50.299Z,101510.90
2023-02-11T06:42:17.632Z,101495.58
2023-02-11T06:45:45.406Z,101496.70
2023-02-11T06:49:13.530Z,101495.16
2023-02-11T06:52:40.834Z,101498.73
2023-02-11T06:56:10.331Z,101509.44
2023-02-11T06:59:37.603Z,101506.72
2023-02-11T07:03:05.243Z,101512.68
2023-02-11T07:06:32.877Z,101517.94
2023-02-11T07:10:04.766Z,101511.86
2023-02-11T07:13:34.953Z,101506.70
2023-02-11T07:17:04.260Z,101502.77
2023-02-11T07:20:34.285Z,101502.23
2023-02-11T07:24:01.509Z,101503.15
2023-02-11T07:27:31.817Z,101493.05
2023-02-11T07:30:59.321Z,101480.69
2023-02-11T07:34:26.710Z,101472.32
2023-02-11T07:37:56.428Z,101484.27
2023-02-11T07:41:25.584Z,101484.65
2023-02-11T07:44:53.010Z,101464.83
2023-02-11T07:48:20.110Z,101473.05
2023-02-11T07:51:49.252Z,101471.69
2023-02-11T07:55:19.680Z,101474.17
2023-02-11T07:58:47.045Z,101471.61
2023-02-11T08:02:23.378Z,101465.65
2023-02-11T08:05:53.982Z,101467.89
2023-02-11T08:09:21.188Z,101472.88
2023-02-11T08:12:58.719Z,101481.67
2023-02-11T08:16:28.905Z,101484.02
2023-02-11T08:19:56.264Z,101484.92
2023-02-11T08:23:32.183Z,101497.52
2023-02-11T08:26:59.291Z,101488.33
2023-02-11T08:30:27.574Z,101485.45
2023-02-11T08:33:57.957Z,101484.66
2023-02-11T08:37:25.165Z,101489.16
2023-02-11T08:40:52.848Z,101489.02
2023-02-11T08:44:21.130Z,101484.83
2023-02-11T08:47:48.456Z,101481.47
2023-02-11T08:51:18.646Z,101476.23
2023-02-11T08:54:46.117Z,101457.61
2023-02-11T08:58:13.404Z,101456.73
2023-02-11T09:01:44.428Z,101455.05
2023-02-11T09:05:13.123Z,101452.27
2023-02-11T09:08:44.710Z,101460.33
2023-02-11T09:12:15.896Z,101453.59
2023-02-11T09:15:46.029Z,101461.36
2023-02-11T09:19:13.585Z,101465.92
2023-02-11T09:22:40.926Z,101469.84
2023-02-11T09:26:11.316Z,101475.33
2023-02-11T09:29:38.449Z,101469.66
2023-02-11T09:33:05.854Z,101465.67
2023-02-11T09:36:35.361Z,101460.02
2023-02-11T09:40:02.657Z,101452.14
2023-02-11T09:43:48.971Z,101457.00
2023-02-11T09:47:28.821Z,101457.86
2023-02-11T09:51:01.593Z,101470.53
2023-02-11T09:54:35.503Z,101456.14
2023-02-11T09:58:06.608Z,101435.80
2023-02-11T10:01:42.992Z,101437.51
2023-02-11T10:05:29.951Z,101449.20
2023-02-11T10:09:05.903Z,101439.39
2023-02-11T10:12:53.322Z,101438.86
2023-02-11T10:16:35.226Z,101455.86
2023-02-11T10:20:19.778Z,101433.89
2023-02-11T10:23:51.987Z,101419.02
2023-02-11T10:27:23.407Z,101404.70
2023-02-11T10:30:59.002Z,101404.42
2023-02-11T10:34:26.372Z,101397.23
2023-02-11T10:37:53.609Z,101400.31
2023-02-11T10:41:25.562Z,101386.71
2023-02-11T10:45:01.611Z,101385.17
2023-02-11T10:48:44.603Z,101388.57
2023-02-11T10:52:23.762Z,101368.06
2023-02-11T10:55:57.293Z,101352.73
2023-02-11T10:59:31.396Z,101365.56
2023-02-11T11:03:02.026Z,101366.59
2023-02-11T11:06:35.294Z,101358.20
2023-02-11T11:10:05.727Z,101344.66
2023-02-11T11:13:35.022Z,101335.14
2023-02-11T11:17:02.295Z,101312.98
2023-02-11T11:20:32.356Z,101306.42
2023-02-11T11:24:03.354Z,101302.45
2023-02-11T11:27:30.799Z,101303.83
2023-02-11T11:31:02.434Z,101300.77
2023-02-11T11:34:33.857Z,101302.34
2023-02-11T11:38:04.440Z,101313.02
2023-02-11T11:41:34.946Z,101307.02
2023-02-11T11:45:05.736Z,101295.23
2023-02-11T11:48:40.688Z,101289.05
2023-02-11T11:52:19.895Z,101290.94
2023-02-11T11:55:50.754Z,101304.20
2023-02-11T11:59:18.515Z,101312.48
2023-02-11T12:03:16.991Z,101334.73
2023-02-11T12:06:55.267Z,101346.77
2023-02-11T12:10:45.604Z,101351.11
2023-02-11T12:14:23.741Z,101351.16
2023-02-11T12:18:05.032Z,101352.04
2023-02-11T12:21:42.911Z,101349.69
2023-02-11T12:25:26.349Z,101361.65
2023-02-11T12:29:06.580Z,101364.27
2023-02-11T12:32:41.796Z,101356.06
2023-02-11T12:36:16.739Z,101362.92
2023-02-11T12:39:51.736Z,101364.49
2023-02-11T12:43:25.068Z,101360.52
2023-02-11T12:47:03.377Z,101354.42
2023-02-11T12:50:46.374Z,101351.55
2023-02-11T12:54:22.028Z,101356.17
2023-02-11T12:57:51.345Z,101353.98
2023-02-11T13:01:23.814Z,101361.75
2023-02-11T13:04:55.267Z,101370.02
2023-02-11T13:08:29.099Z,101378.46
2023-02-11T13:12:20.239Z,101372.48
2023-02-11T13:15:51.905Z,101370.05
2023-02-11T13:19:27.795Z,101371.70
2023-02-11T13:23:02.884Z,101379.45
2023-02-11T13:26:37.604Z,101385.00
2023-02-11T13:30:32.606Z,101378.58
2023-02-11T13:33:59.841Z,101368.96
2023-02-11T13:37:30.078Z,101367.49
2023-02-11T13:41:06.089Z,101373.07
2023-02-11T13:44:36.645Z,101374.86
2023-02-11T13:48:06.305Z,101377.42
2023-02-11T13:51:41.804Z,101371.78
2023-02-11T13:55:21.547Z,101372.55
2023-02-11T13:58:52.213Z,101382.81
2023-02-11T14:02:49.333Z,101386.34
2023-02-11T14:07:02.595Z,101388.13
2023-02-11T14:10:55.735Z,101384.81
2023-02-11T14:14:29.197Z,101383.39
2023-02-11T14:17:56.401Z,101381.69
2023-02-11T14:21:32.422Z,101378.38
2023-02-11T14:25:02.534Z,101370.75
2023-02-11T14:28:36.283Z,101378.09
2023-02-11T14:32:14.604Z,101382.55
2023-02-11T14:35:52.219Z,101387.22
2023-02-11T14:39:30.646Z,101406.92
2023-02-11T14:43:03.131Z,101410.97
2023-02-11T14:46:44.692Z,101414.70
2023-02-11T14:50:23.325Z,101419.01
2023-02-11T14:54:04.855Z,101421.28
2023-02-11T14:57:33.575Z,101430.48
2023-02-11T15:01:30.306Z,101439.22
2023-02-11T15:05:26.278Z,101452.11
2023-02-11T15:09:02.128Z,101460.88
2023-02-11T15:12:30.346Z,101465.50
2023-02-11T15:16:03.555Z,101461.65
2023-02-11T15:19:35.051Z,101460.13
2023-02-11T15:23:04.986Z,101460.30
2023-02-11T15:26:32.378Z,101463.11
2023-02-11T15:29:59.640Z,101466.16
2023-02-11T15:33:29.966Z,101469.67
2023-02-11T15:36:58.568Z,101467.13
2023-02-11T15:40:29.138Z,101468.67
2023-02-11T15:43:56.492Z,101470.30
2023-02-11T15:47:30.875Z,101476.61
2023-02-11T15:51:01.739Z,101485.48
2023-02-11T15:54:32.571Z,101482.89
2023-02-11T15:58:02.236Z,101487.52
2023-02-11T16:01:34.016Z,101494.58
2023-02-11T16:05:04.444Z,101503.05
2023-02-11T16:08:33.039Z,101508.73
2023-02-11T16:12:01.628Z,101512.13
2023-02-11T16:15:45.789Z,101512.64
2023-02-11T16:19:22.905Z,101520.66
2023-02-11T16:22:51.502Z,101531.67
2023-02-11T16:26:43.556Z,101535.99
2023-02-11T16:30:28.740Z,101539.50
2023-02-11T16:33:58.386Z,101546.27
2023-02-11T16:37:28.528Z,101558.23
2023-02-11T16:40:55.991Z,101567.75
2023-02-11T16:44:23.363Z,101577.59
2023-02-11T16:47:50.753Z,101584.90
2023-02-11T16:51:17.928Z,101586.84
2023-02-11T16:54:45.453Z,101587.05
2023-02-11T16:58:12.676Z,101599.38
2023-02-11T17:01:41.752Z,101607.17
2023-02-11T17:05:18.554Z,101613.55
2023-02-11T17:08:46.322Z,101624.78
2023-02-11T17:12:16.790Z,101634.69
2023-02-11T17:15:43.925Z,101637.24
2023-02-11T17:19:13.878Z,101641.40
2023-02-11T17:22:41.204Z,101641.14
2023-02-11T17:26:09.252Z,101648.80
2023-02-11T17:29:39.545Z,101653.66
2023-02-11T17:33:06.911Z,101658.14
2023-02-11T17:36:34.445Z,101660.40
2023-02-11T17:40:04.222Z,101666.52
2023-02-11T17:43:31.813Z,101671.29
2023-02-11T17:46:59.121Z,101672.59
2023-02-11T17:50:29.229Z,101672.67
2023-02-11T17:54:01.182Z,101674.74
2023-02-11T17:57:28.335Z,101680.35
2023-02-11T18:00:58.867Z,101688.55
2023-02-11T18:04:26.281Z,101689.39
2023-02-11T18:07:57.112Z,101689.67
2023-02-11T18:11:25.257Z,101696.05
2023-02-11T18:14:58.014Z,101702.88
2023-02-11T18:18:25.740Z,101709.30
2023-02-11T18:21:53.006Z,101718.58
2023-02-11T18:25:20.477Z,101721.69
2023-02-11T18:28:47.746Z,101727.74
2023-02-11T18:32:16.165Z,101731.14
2023-02-11T18:35:49.323Z,101726.58
2023-02-11T18:39:20.287Z,101723.90
2023-02-11T18:42:48.389Z,101729.40
2023-02-11T18:46:17.429Z,101724.74
2023-02-11T18:49:44.661Z,101722.09
2023-02-11T18:53:12.403Z,101725.89
2023-02-11T18:56:50.886Z,101734.72
2023-02-11T19:00:20.451Z,101739.07
2023-02-11T19:03:46.489Z,101749.30
2023-02-11T19:07:13.885Z,101757.67
2023-02-11T19:10:45.021Z,101764.93
2023-02-11T19:14:13.216Z,101765.09
2023-02-11T19:17:40.476Z,101772.10
2023-02-11T19:21:12.496Z,101775.27
2023-02-11T19:24:49.245Z,101783.05
2023-02-11T19:28:16.812Z,101797.77
2023-02-11T19:31:46.898Z,101797.55
2023-02-11T19:35:14.337Z,101807.85
2023-02-11T19:38:41.620Z,101812.43
2023-02-11T19:42:09.356Z,101811.89
2023-02-11T19:45:39.727Z,101813.95
2023-02-11T19:49:08.265Z,101810.20
2023-02-11T19:52:38.235Z,101808.23
2023-02-11T19:56:07.694Z,101816.89
2023-02-11T19:59:34.992Z,101817.42
2023-02-11T20:03:02.239Z,101830.52
2023-02-11T20:06:33.074Z,101828.27
2023-02-11T20:10:00.257Z,101831.38
2023-02-11T20:13:29.372Z,101843.71
2023-02-11T20:16:56.576Z,101845.39
2023-02-11T20:20:24.091Z,101848.96
2023-02-11T20:23:52.790Z,101856.44
2023-02-11T20:27:20.273Z,101877.94
2023-02-11T20:30:58.364Z,101881.08
2023-02-11T20:34:26.022Z,101884.96
2023-02-11T20:37:53.262Z,101888.70
2023-02-11T20:41:22.382Z,101895.70
2023-02-11T20:44:50.012Z,101899.59
2023-02-11T20:48:17.354Z,101904.45
2023-02-11T20:51:45.086Z,101920.30
2023-02-11T20:55:13.485Z,101927.97
2023-02-11T20:58:43.154Z,101939.46
2023-02-11T21:02:13.275Z,101936.37
2023-02-11T21:05:42.935Z,101939.59
2023-02-11T21:09:12.719Z,101949.86
2023-02-11T21:12:39.848Z,101958.66
2023-02-11T21:16:08.837Z,101978.19
2023-02-11T21:19:36.142Z,101988.36
2023-02-11T21:23:03.536Z,101988.40
2023-02-11T21:26:30.795Z,101988.45
2023-02-11T21:29:57.848Z,101983.64
2023-02-11T21:33:26.124Z,101986.21
2023-02-11T21:36:53.320Z,101990.69
2023-02-11T21:40:27.323Z,102003.65
2023-02-11T21:43:54.980Z,102001.00
2023-02-11T21:47:22.284Z,101999.08
2023-02-11T21:50:50.068Z,102008.56
2023-02-11T21:54:18.869Z,102014.23
2023-02-11T21:57:46.609Z,102009.95
2023-02-11T22:01:16.008Z,102011.39
2023-02-11T22:04:43.408Z,102017.48
2023-02-11T22:08:10.979Z,102018.41
2023-02-11T22:11:39.111Z,102021.31
2023-02-11T22:15:07.775Z,102021.48
2023-02-11T22:18:35.425Z,102023.82
2023-02-11T22:22:02.887Z,102033.81
2023-02-11T22:25:30.269Z,102038.27
2023-02-11T22:28:58.325Z,102043.42
2023-02-11T22:32:25.633Z,102047.88
2023-02-11T22:35:58.704Z,102056.02
2023-02-11T22:39:26.319Z,102066.23
2023-02-11T22:42:53.828Z,102078.75
2023-02-11T22:46:22.093Z,102090.11
2023-02-11T22:49:49.442Z,102102.89
2023-02-11T22:53:16.660Z,102107.64
2023-02-11T22:56:44.607Z,102106.84
2023-02-11T23:00:14.553Z,102118.36
2023-02-11T23:03:40.065Z,102118.92
2023-02-11T23:07:07.159Z,102118.27
2023-02-11T23:10:35.336Z,102123.64
2023-02-11T23:14:04.178Z,102120.24
2023-02-11T23:17:31.532Z,102122.39
2023-02-11T23:21:03.451Z,102122.16
2023-02-11T23:24:30.863Z,102125.66
2023-02-11T23:27:58.103Z,102129.50
2023-02-11T23:31:27.351Z,102134.80
2023-02-11T23:34:54.736Z,102136.26
2023-02-11T23:38:21.798Z,102139.39
2023-02-11T23:41:49.627Z,102142.45
2023-02-11T23:45:17.210Z,102145.52
2023-02-11T23:48:52.498Z,102151.10
2023-02-11T23:52:19.777Z,102160.64
2023-02-11T23:55:48.387Z,102155.55
2023-02-11T23:59:15.766Z,102159.92
